METAR AND TAF INFORMATION
METAR FOR LEZL
ADDS - METARS form results

(0428 UTC 21 August 2017)
Data provider http://aviationweather.gov/adds/metars/
 
METAR text: LEZL 210400Z 00000KT CAVOK 24/19 Q1015 NOSIG
Conditions at: LEZL (SEVILLA (CIV/MIL, ES) observed 0400 UTC 21 August 2017
Temperature: 24.0°C (75°F)
Dewpoint: 19.0°C (66°F) [RH = 74%]
Pressure (altimeter): 29.97 inches Hg (1015.0 mb)
Winds: calm
Visibility: 6 or more miles (10+ km)
Ceiling: ceiling and visibility are OK
Clouds: unknown
Weather: no significant weather observed at this time

METAR text: LEZL 210330Z 08001KT CAVOK 25/19 Q1015 NOSIG
Conditions at: LEZL (SEVILLA (CIV/MIL, ES) observed 0330 UTC 21 August 2017
Temperature: 25.0°C (77°F)
Dewpoint: 19.0°C (66°F) [RH = 69%]
Pressure (altimeter): 29.97 inches Hg (1015.0 mb)
Winds: from the E (80 degrees) at 1 MPH (1 knots; 0.5 m/s)
Visibility: 6 or more miles (10+ km)
Ceiling: ceiling and visibility are OK
Clouds: unknown
Weather: no significant weather observed at this time

Forecast for: LEZL (SEVILLA (CIV/MIL, ES)
Text: TAF LEZL 210200Z 2103/2203 VRB02KT CAVOK TX38/2116Z TN23/2106Z
Forecast period: 0300 to 1700 UTC 21 August 2017
Forecast type: FROM: standard forecast or significant change
Winds: variable direction winds at 2 MPH (2 knots; 1.0 m/s)
Visibility: 6 or more miles (10+ km)
Clouds: not forecast
Weather: no significant weather forecast for this period
Text: BECMG 2117/2119 24010KT
Forecast period: 1700 to 2200 UTC 21 August 2017
Forecast type: BECOMING: Conditions expected to become as follows by 1900 UTC 21 August 2017
Winds: from the WSW (240 degrees) at 12 MPH (10 knots; 5.2 m/s)
Visibility: 6 or more miles (10+ km)
Weather: no significant weather forecast for this period
Text: BECMG 2122/2124 VRB02KT
Forecast period: 2200 UTC 21 August 2017 to 0300 UTC 22 August 2017
Forecast type: BECOMING: Conditions expected to become as follows by 0000 UTC 22 August 2017
Winds: variable direction winds at 2 MPH (2 knots; 1.0 m/s)
Visibility: 6 or more miles (10+ km)
Weather: no significant weather forecast for this period

 AIRPORT MAP

 RUNWAY INFORMATION
Runway 09 Runway length 11024 ft Runway width 148 ft
Runway elevation 83 ft Runway displaced threshold 0 ft Runway heading 90
Runway 27 Runway length 11024 ft Runway width 148 ft
Runway elevation 111 ft Runway displaced threshold 0 ft Runway heading 270

 AIRPORT FREQUENCIES
Type APP Name APP Frequency 120 MHZ
Type ATIS Name ATIS Frequency 118.175 MHZ
Type GND Name GND Frequency 121.7 MHZ
Type TWR Name TWR Frequency 118.1 MHZ

 AIRPORT NEAR NAVIGATION AIDS
Type NDB Name Sevilla Frequency 420 KHZ
Type VOR-DME Name Sevilla Frequency 113700 KHZ







Air Nostrum Virtual © 2017

a VAG member

Policy Privacy | Rules | Powered by VAM [V2.6.2] | Customized by Jz © 2017 for Air Nostrum Virtual